createdAt,value
2023-04-27T00:03:40.137Z,88.39
2023-04-27T00:09:42.159Z,88.98
2023-04-27T00:15:45.401Z,88.77
2023-04-27T00:21:47.272Z,88.74
2023-04-27T00:27:49.238Z,89.03
2023-04-27T00:33:51.205Z,89.32
2023-04-27T00:39:53.070Z,88.34
2023-04-27T00:45:55.124Z,88.01
2023-04-27T00:51:57.078Z,88.27
2023-04-27T00:57:59.057Z,88.60
2023-04-27T01:04:01.866Z,89.17
2023-04-27T01:10:05.944Z,89.29
2023-04-27T01:16:08.503Z,89.42
2023-04-27T01:22:10.424Z,88.64
2023-04-27T01:28:12.601Z,89.03
2023-04-27T01:34:14.504Z,89.15
2023-04-27T01:40:17.696Z,88.95
2023-04-27T01:46:19.655Z,89.05
2023-04-27T01:52:21.588Z,90.46
2023-04-27T01:58:23.514Z,89.73
2023-04-27T02:04:25.925Z,90.51
2023-04-27T02:10:27.927Z,90.13
2023-04-27T02:16:29.950Z,90.23
2023-04-27T02:22:31.839Z,89.86
2023-04-27T02:28:33.776Z,89.42
2023-04-27T02:34:36.203Z,89.93
2023-04-27T02:40:38.247Z,90.84
2023-04-27T02:46:40.209Z,90.34
2023-04-27T02:52:42.171Z,89.98
2023-04-27T02:58:44.851Z,90.08
2023-04-27T03:04:47.299Z,90.20
2023-04-27T03:10:49.227Z,90.31
2023-04-27T03:16:51.178Z,89.99
2023-04-27T03:22:53.188Z,89.73
2023-04-27T03:28:55.090Z,90.25
2023-04-27T03:34:57.090Z,89.86
2023-04-27T03:40:59.043Z,90.28
2023-04-27T03:47:01.656Z,90.22
2023-04-27T03:53:03.884Z,90.38
2023-04-27T03:59:05.880Z,90.32
2023-04-27T04:05:08.898Z,90.35
2023-04-27T04:11:10.957Z,90.70
2023-04-27T04:17:12.825Z,90.49
2023-04-27T04:23:14.714Z,91.29
2023-04-27T04:29:16.877Z,91.17
2023-04-27T04:35:19.772Z,91.40
2023-04-27T04:41:21.688Z,91.12
2023-04-27T04:47:23.610Z,92.56
2023-04-27T04:53:26.177Z,92.37
2023-04-27T04:59:29.391Z,91.98
2023-04-27T05:05:32.179Z,93.30
2023-04-27T05:11:34.098Z,92.05
2023-04-27T05:17:36.138Z,91.74
2023-04-27T05:23:38.026Z,91.81
2023-04-27T05:29:39.912Z,90.12
2023-04-27T05:35:41.840Z,90.08
2023-04-27T05:41:43.715Z,89.53
2023-04-27T05:47:45.926Z,89.01
2023-04-27T05:53:47.888Z,88.64
2023-04-27T05:59:49.771Z,87.44
2023-04-27T06:06:00.354Z,84.76
2023-04-27T06:12:04.335Z,83.38
2023-04-27T06:18:06.262Z,83.41
2023-04-27T06:24:08.236Z,83.34
2023-04-27T06:30:10.939Z,82.35
2023-04-27T06:36:12.876Z,80.92
2023-04-27T06:42:14.828Z,81.19
2023-04-27T06:48:17.164Z,79.80
2023-04-27T06:54:19.624Z,77.05
2023-04-27T07:00:21.985Z,74.12
2023-04-27T07:06:25.590Z,72.92
2023-04-27T07:12:27.891Z,69.93
2023-04-27T07:18:29.775Z,71.49
2023-04-27T07:24:31.664Z,69.18
2023-04-27T07:30:36.409Z,66.46
2023-04-27T07:36:38.565Z,64.85
2023-04-27T07:42:42.035Z,59.57
2023-04-27T07:48:44.942Z,58.91
2023-04-27T07:54:46.897Z,59.73
2023-04-27T08:00:48.780Z,54.16
2023-04-27T08:06:51.386Z,53.38
2023-04-27T08:12:53.567Z,56.29
2023-04-27T08:18:55.726Z,51.03
2023-04-27T08:24:57.653Z,49.81
2023-04-27T08:30:59.871Z,47.64
2023-04-27T08:37:03.298Z,50.09
2023-04-27T08:43:05.195Z,48.49
2023-04-27T08:49:08.010Z,45.27
2023-04-27T08:55:10.162Z,44.74
2023-04-27T09:01:12.208Z,43.81
2023-04-27T09:07:17.681Z,43.58
2023-04-27T09:13:19.582Z,39.80
2023-04-27T09:19:29.275Z,39.28
2023-04-27T09:25:33.400Z,40.86
2023-04-27T09:31:36.106Z,39.71
2023-04-27T09:37:38.112Z,38.92
2023-04-27T09:43:41.376Z,38.27
2023-04-27T09:49:43.376Z,37.58
2023-04-27T09:55:59.732Z,35.43
2023-04-27T10:02:17.158Z,37.39
2023-04-27T10:08:25.503Z,35.14
2023-04-27T10:14:29.072Z,37.32
2023-04-27T10:20:36.073Z,34.35
2023-04-27T10:26:48.258Z,34.73
2023-04-27T10:33:05.166Z,35.34
2023-04-27T10:39:18.450Z,36.02
2023-04-27T10:45:31.122Z,30.60
2023-04-27T10:51:33.858Z,29.64
2023-04-27T10:57:45.116Z,27.15
2023-04-27T11:03:59.325Z,26.38
2023-04-27T11:10:01.262Z,26.13
2023-04-27T11:16:05.359Z,25.38
2023-04-27T11:22:07.654Z,23.51
2023-04-27T11:28:19.174Z,24.99
2023-04-27T11:34:23.944Z,23.70
2023-04-27T11:40:27.178Z,24.79
2023-04-27T11:46:29.194Z,25.01
2023-04-27T11:52:32.840Z,27.48
2023-04-27T11:58:36.270Z,28.55
2023-04-27T12:04:38.432Z,25.62
2023-04-27T12:10:41.790Z,24.07
2023-04-27T12:16:43.738Z,24.62
2023-04-27T12:22:45.675Z,24.89
2023-04-27T12:28:47.608Z,25.43
2023-04-27T12:34:49.483Z,22.98
2023-04-27T12:40:51.460Z,19.98
2023-04-27T12:46:53.455Z,22.43
2023-04-27T12:52:55.462Z,20.11
2023-04-27T12:58:57.767Z,19.89
2023-04-27T13:04:59.777Z,20.67
2023-04-27T13:11:01.809Z,19.39
2023-04-27T13:17:04.254Z,18.40
2023-04-27T13:23:06.671Z,19.18
2023-04-27T13:29:08.603Z,18.37
2023-04-27T13:35:10.689Z,18.83
2023-04-27T13:41:12.674Z,18.76
2023-04-27T13:47:14.687Z,18.83
2023-04-27T13:53:17.074Z,19.45
2023-04-27T13:59:19.064Z,19.88
2023-04-27T14:05:21.069Z,19.21
2023-04-27T14:11:23.392Z,17.60
2023-04-27T14:17:25.653Z,18.10
2023-04-27T14:23:27.595Z,18.16
2023-04-27T14:29:29.482Z,16.87
2023-04-27T14:35:35.073Z,19.11
2023-04-27T14:41:37.491Z,19.32
2023-04-27T14:47:39.521Z,17.26
2023-04-27T14:53:41.489Z,16.14
2023-04-27T14:59:44.392Z,15.89
2023-04-27T15:05:46.623Z,15.98
2023-04-27T15:11:48.530Z,17.48
2023-04-27T15:17:50.590Z,19.61
2023-04-27T15:23:52.506Z,20.23
2023-04-27T15:29:55.281Z,21.12
2023-04-27T15:35:58.985Z,23.86
2023-04-27T15:42:01.457Z,23.93
2023-04-27T15:48:03.781Z,24.16
2023-04-27T15:54:05.893Z,25.53
2023-04-27T16:00:12.036Z,23.81
2023-04-27T16:06:13.939Z,24.04
2023-04-27T16:12:15.872Z,25.45
2023-04-27T16:18:17.818Z,24.61
2023-04-27T16:24:19.824Z,23.42
2023-04-27T16:30:23.615Z,23.07
2023-04-27T16:36:25.549Z,23.50
2023-04-27T16:42:27.469Z,25.67
2023-04-27T16:48:30.220Z,25.87
2023-04-27T16:54:32.116Z,27.84
2023-04-27T17:00:34.142Z,32.17
2023-04-27T17:06:36.202Z,31.86
2023-04-27T17:12:38.256Z,35.29
2023-04-27T17:18:40.625Z,36.87
2023-04-27T17:24:42.581Z,40.37
2023-04-27T17:30:44.504Z,39.74
2023-04-27T17:36:46.540Z,46.44
2023-04-27T17:42:49.453Z,49.55
2023-04-27T17:48:51.562Z,50.63
2023-04-27T17:54:53.503Z,47.32
2023-04-27T18:00:55.634Z,51.10
2023-04-27T18:06:57.608Z,52.13
2023-04-27T18:12:59.777Z,50.03
2023-04-27T18:19:01.723Z,53.92
2023-04-27T18:25:04.064Z,52.97
2023-04-27T18:31:17.582Z,54.64
2023-04-27T18:37:19.645Z,54.37
2023-04-27T18:43:21.564Z,54.42
2023-04-27T18:49:23.610Z,56.23
2023-04-27T18:55:25.541Z,57.29
2023-04-27T19:01:31.592Z,56.84
2023-04-27T19:07:33.762Z,57.45
2023-04-27T19:13:35.772Z,57.93
2023-04-27T19:19:37.684Z,56.87
2023-04-27T19:25:40.416Z,57.11
2023-04-27T19:31:42.384Z,56.25
2023-04-27T19:37:44.339Z,57.14
2023-04-27T19:43:46.210Z,57.72
2023-04-27T19:49:48.118Z,57.66
2023-04-27T19:55:50.095Z,56.14
2023-04-27T20:01:52.334Z,57.34
2023-04-27T20:07:54.305Z,56.40
2023-04-27T20:13:56.187Z,53.46
2023-04-27T20:19:58.070Z,53.41
2023-04-27T20:26:00.134Z,53.15
2023-04-27T20:32:02.347Z,55.16
2023-04-27T20:38:04.466Z,55.93
2023-04-27T20:44:07.424Z,56.40
2023-04-27T20:50:09.696Z,56.85
2023-04-27T20:56:11.979Z,57.01
2023-04-27T21:02:15.097Z,56.87
2023-04-27T21:08:17.369Z,56.29
2023-04-27T21:14:19.340Z,57.10
2023-04-27T21:20:21.390Z,57.37
2023-04-27T21:26:23.296Z,58.96
2023-04-27T21:32:25.176Z,59.91
2023-04-27T21:38:27.112Z,60.02
2023-04-27T21:44:29.016Z,60.73
2023-04-27T21:50:31.109Z,62.01
2023-04-27T21:56:33.010Z,62.12
2023-04-27T22:02:35.037Z,62.85
2023-04-27T22:08:37.180Z,61.86
2023-04-27T22:14:39.065Z,61.88
2023-04-27T22:20:42.338Z,63.10
2023-04-27T22:26:44.379Z,62.47
2023-04-27T22:32:46.594Z,62.20
2023-04-27T22:38:50.749Z,62.66
2023-04-27T22:44:52.672Z,64.18
2023-04-27T22:50:54.551Z,64.85
2023-04-27T22:56:57.370Z,65.13
2023-04-27T23:02:59.602Z,64.74
2023-04-27T23:09:03.080Z,65.02
2023-04-27T23:15:05.685Z,64.14
2023-04-27T23:21:07.610Z,64.77
2023-04-27T23:27:09.515Z,65.06
2023-04-27T23:33:11.381Z,66.01
2023-04-27T23:39:13.255Z,65.67
2023-04-27T23:45:15.286Z,66.09
2023-04-27T23:51:17.360Z,66.21
2023-04-27T23:57:19.245Z,66.90
